Aérodrome d'Arcachon-La Teste-de-Buch

LFCH · Gironde, Nouvelle-Aquitaine, Frankreich

METAR-Geschichte LFCH · Aérodrome d'Arcachon-La Teste-de-Buch

Unten siehst du die METARs der letzten paar Tage. Wähle ein Jahr, um ältere METARs ab dem Jahr 2007 zu durchsuchen.

3. Dezember 2022

Uhrzeit Code Wetter Temp. Sichtweite Wolkendecke Wind METAR/SPECI
23:30
M
0 °C 10 km+ 2.700 ft Var 000° 0 kt METAR LFBC 032230Z AUTO 00000KT 9999 BKN027 OVC160 00/M00 Q1009
23:00
M
0 °C 10 km+ 2.300 ft 360° 360° 2 kt METAR LFBC 032200Z AUTO 36002KT 9999 BKN023 00/00 Q1009
22:30
V
0 °C 10 km+ - 340° 340° 2 kt METAR LFBC 032130Z AUTO 34002KT CAVOK 00/M00 Q1009
22:00
V
0 °C 10 km+ - Var 000° 0 kt METAR LFBC 032100Z AUTO 00000KT CAVOK M00/M02 Q1009
21:30
V
1 °C 10 km+ - 010° 010° 3 kt METAR LFBC 032030Z AUTO 01003KT CAVOK 01/01 Q1009
21:00
V
1 °C 10 km+ - 360° 360° 1 kt METAR LFBC 032000Z AUTO 36001KT CAVOK 01/01 Q1009
20:30
M
2 °C 7 km - Var 000° 0 kt METAR LFBC 031930Z AUTO 00000KT 7000 NSC 02/01 Q1009
20:00
V
2 °C 10 km+ - Var 000° 0 kt METAR LFBC 031900Z AUTO 00000KT CAVOK 02/00 Q1009
19:30
V
3 °C 10 km+ - Var Var 1 kt METAR LFBC 031830Z AUTO VRB01KT CAVOK 03/02 Q1009
19:00
V
4 °C 10 km+ - 050° 050° 3 kt METAR LFBC 031800Z AUTO 05003KT 9999 FEW033 04/03 Q1009
18:30
V
4 °C 10 km+ 3.400 ft 090° 090° 4 kt METAR LFBC 031730Z AUTO 09004KT 9999 BKN034 BKN110 04/03 Q1008
18:00
V
5 °C 10 km+ 3.500 ft 080° 080° 4 kt METAR LFBC 031700Z AUTO 08004KT 9999 BKN035 BKN120 05/03 Q1008
17:30
V
6 °C 10 km+ 3.300 ft 090° 090° 5 kt METAR LFBC 031630Z AUTO 09005KT 9999 FEW021 OVC033 06/03 Q1008
17:00
V
7 °C 10 km+ 3.000 ft 100° 100° 6 kt METAR LFBC 031600Z AUTO 10006KT 9999 FEW021 OVC030 07/03 Q1008
16:30
V
8 °C 10 km+ - 080° 080° 6 kt METAR LFBC 031530Z AUTO 08006KT 050V110 9999 SCT029 08/03 Q1008
16:00
V
8 °C 10 km+ 3.000 ft 090° 090° 4 kt METAR LFBC 031500Z AUTO 09004KT 9999 BKN030 08/03 Q1008
15:30
V
8 °C 10 km+ 3.300 ft 090° 090° 5 kt METAR LFBC 031430Z AUTO 09005KT 9999 SCT027 BKN033 08/03 Q1008
15:00
V
8 °C 10 km+ - 090° 090° 3 kt METAR LFBC 031400Z AUTO 09003KT 050V110 9999 FEW028 08/02 Q1008
14:30
V
8 °C 10 km+ - 090° 090° 5 kt METAR LFBC 031330Z AUTO 09005KT 9999 FEW028 08/02 Q1008
14:00
V
8 °C 10 km+ - 060° 060° 4 kt METAR LFBC 031300Z AUTO 06004KT 360V100 9999 FEW027 08/02 Q1008
13:30
M
8 °C 10 km+ 2.300 ft 110° 110° 4 kt METAR LFBC 031230Z AUTO 11004KT 030V170 9999 BKN023 08/02 Q1009
13:00
V
7 °C 10 km+ - 060° 060° 4 kt METAR LFBC 031200Z AUTO 06004KT 020V100 9999 SCT023 07/02 Q1009
12:30
M
7 °C 10 km+ 2.000 ft 070° 070° 4 kt METAR LFBC 031130Z AUTO 07004KT 030V100 9999 BKN020 07/03 Q1009
12:00
M
7 °C 10 km+ 1.500 ft 050° 050° 6 kt METAR LFBC 031100Z AUTO 05006KT 9999 BKN015 07/03 Q1010
11:30
V
6 °C 10 km+ - 060° 060° 5 kt METAR LFBC 031030Z AUTO 06005KT 020V090 9999 FEW013 06/03 Q1010
11:00
M
6 °C 10 km+ 1.000 ft 060° 060° 6 kt METAR LFBC 031000Z AUTO 06006KT 020V100 9999 BKN010 06/03 Q1010
10:30
I
5 °C 10 km+ 900 ft 060° 060° 6 kt METAR LFBC 030930Z AUTO 06006KT 9999 OVC009 05/03 Q1010
10:00
I
4 °C 10 km+ 900 ft 070° 070° 8 kt METAR LFBC 030900Z AUTO 07008KT 9999 OVC009 04/02 Q1010
09:30
I
4 °C 10 km+ 900 ft 080° 080° 6 kt METAR LFBC 030830Z AUTO 08006KT 050V110 9999 OVC009 04/03 Q1010
09:00
M
4 °C 10 km+ 1.000 ft 070° 070° 6 kt METAR LFBC 030800Z AUTO 07006KT 9999 OVC010 04/03 Q1010
08:30
I
4 °C 10 km+ 800 ft 060° 060° 6 kt METAR LFBC 030730Z AUTO 06006KT 9999 OVC008 04/03 Q1010
08:00
I
4 °C 10 km+ 900 ft 050° 050° 6 kt METAR LFBC 030700Z AUTO 05006KT 9999 OVC009 04/03 Q1010
07:30
I
4 °C 10 km+ 800 ft 080° 080° 1 kt METAR LFBC 030630Z AUTO 08001KT 9999 OVC008 04/03 Q1010
07:00
I
4 °C 10 km+ 900 ft Var Var 2 kt METAR LFBC 030600Z AUTO VRB02KT 9999 BKN009 OVC088 04/03 Q1010
06:30
I
4 °C 10 km+ 700 ft Var Var 2 kt METAR LFBC 030530Z AUTO VRB02KT 9999 BKN007 OVC080 04/03 Q1010
06:00
V
4 °C 10 km+ - 070° 070° 6 kt METAR LFBC 030500Z AUTO 07006KT CAVOK 04/03 Q1010
05:30
V
4 °C 10 km+ 7.400 ft 020° 020° 5 kt METAR LFBC 030430Z AUTO 02005KT 350V050 9999 FEW010 OVC074 04/03 Q1011
05:00
V
4 °C 10 km+ - 040° 040° 7 kt METAR LFBC 030400Z AUTO 04007KT 340V080 CAVOK 04/03 Q1011
04:30
V
4 °C 10 km+ - 050° 050° 8 kt METAR LFBC 030330Z AUTO 05008KT CAVOK 04/03 Q1011
04:00
V
4 °C 10 km+ - 040° 040° 5 kt METAR LFBC 030300Z AUTO 04005KT CAVOK 04/03 Q1011
03:30
V
5 °C 10 km+ 5.800 ft 030° 030° 6 kt METAR LFBC 030230Z AUTO 03006KT 9999 FEW044 OVC058 05/03 Q1012
03:00
V
5 °C 10 km+ 3.700 ft 020° 020° 5 kt METAR LFBC 030200Z AUTO 02005KT 9999 OVC037 05/03 Q1012
02:30
V
5 °C 10 km+ 3.500 ft 030° 030° 5 kt METAR LFBC 030130Z AUTO 03005KT 9999 OVC035 05/03 Q1012
02:00
V
5 °C 10 km+ 3.500 ft 020° 020° 5 kt METAR LFBC 030100Z AUTO 02005KT 9999 OVC035 05/03 Q1012
01:30
V
5 °C 10 km+ 3.700 ft 010° 010° 4 kt METAR LFBC 030030Z AUTO 01004KT 9999 OVC037 05/03 Q1013
01:00
V
5 °C 10 km+ 3.700 ft 020° 020° 4 kt METAR LFBC 030000Z AUTO 02004KT 9999 OVC037 05/03 Q1013
00:30
V
5 °C 10 km+ 3.900 ft 010° 010° 5 kt METAR LFBC 022330Z AUTO 01005KT 9999 OVC039 05/03 Q1013
00:00
V
5 °C 10 km+ 3.900 ft 010° 010° 5 kt METAR LFBC 022300Z AUTO 01005KT 9999 OVC039 05/03 Q1013

2. Dezember 2022

Uhrzeit Code Wetter Temp. Sichtweite Wolkendecke Wind METAR/SPECI
23:30
V
5 °C 10 km+ 3.900 ft 010° 010° 4 kt METAR LFBC 022230Z AUTO 01004KT 9999 OVC039 05/03 Q1013
23:00
V
5 °C 10 km+ 3.900 ft 020° 020° 4 kt METAR LFBC 022200Z AUTO 02004KT 9999 OVC039 05/03 Q1014
22:30
V
5 °C 10 km+ 3.900 ft 020° 020° 5 kt METAR LFBC 022130Z AUTO 02005KT 9999 OVC039 05/03 Q1014
22:00
V
5 °C 10 km+ 4.000 ft 030° 030° 4 kt METAR LFBC 022100Z AUTO 03004KT 9999 OVC040 05/03 Q1014
21:30
V
5 °C 10 km+ 4.000 ft 030° 030° 5 kt METAR LFBC 022030Z AUTO 03005KT 9999 OVC040 05/03 Q1014
21:00
V
5 °C 10 km+ 4.000 ft 030° 030° 5 kt METAR LFBC 022000Z AUTO 03005KT 9999 OVC040 05/03 Q1014
20:30
V
5 °C 10 km+ 4.100 ft 030° 030° 5 kt METAR LFBC 021930Z AUTO 03005KT 9999 OVC041 05/03 Q1015
20:00
V
5 °C 10 km+ 4.100 ft 020° 020° 5 kt METAR LFBC 021900Z AUTO 02005KT 9999 OVC041 05/03 Q1015
19:30
V
5 °C 10 km+ 21.000 ft 010° 010° 4 kt METAR LFBC 021830Z AUTO 01004KT 9999 FEW043 SCT180 OVC210 05/03 Q1015
19:00
V
5 °C 10 km+ - 010° 010° 5 kt METAR LFBC 021800Z AUTO 01005KT CAVOK 05/03 Q1015
18:30
V
6 °C 10 km+ - 030° 030° 4 kt METAR LFBC 021730Z AUTO 03004KT CAVOK 06/03 Q1015
18:00
V
6 °C 10 km+ - 030° 030° 5 kt METAR LFBC 021700Z AUTO 03005KT CAVOK 06/03 Q1015
17:30
V
7 °C 10 km+ - 040° 040° 6 kt METAR LFBC 021630Z AUTO 04006KT CAVOK 07/03 Q1016
17:00
V
7 °C 10 km+ 20.000 ft 040° 040° 7 kt METAR LFBC 021600Z AUTO 04007KT 9999 FEW021 OVC200 07/03 Q1015
16:30
V
8 °C 10 km+ 20.000 ft 050° 050° 7 kt METAR LFBC 021530Z AUTO 05007KT 9999 FEW023 OVC200 08/03 Q1015
16:00
V
8 °C 10 km+ - 040° 040° 7 kt METAR LFBC 021500Z AUTO 04007KT 010V070 9999 FEW022 08/03 Q1016 NOSIG
15:30
V
8 °C 10 km+ - 030° 030° 8 kt METAR LFBC 021430Z AUTO 03008KT 9999 FEW021 08/04 Q1016 NOSIG
15:00
V
8 °C 10 km+ - 020° 020° 9 kt METAR LFBC 021400Z AUTO 02009KT 9999 FEW020 08/03 Q1016 NOSIG
14:30
V
8 °C 10 km+ - 040° 040° 8 kt METAR LFBC 021330Z AUTO 04008KT 360V060 9999 FEW019 SCT042 08/04 Q1016 NOSIG
14:00
V
8 °C 10 km+ 4.200 ft 030° 030° 8 kt METAR LFBC 021300Z AUTO 03008KT 9999 FEW016 OVC042 08/04 Q1016 NOSIG
13:30
V
7 °C 10 km+ 4.200 ft 040° 040° 6 kt METAR LFBC 021230Z AUTO 04006KT 9999 FEW015 OVC042 07/04 Q1017 NOSIG
13:00
V
7 °C 10 km+ 4.300 ft 030° 030° 7 kt METAR LFBC 021200Z AUTO 03007KT 350V050 9999 FEW015 OVC043 07/04 Q1017 NOSIG
12:30
V
7 °C 10 km+ 4.300 ft 040° 040° 7 kt METAR LFBC 021130Z AUTO 04007KT 9999 FEW016 OVC043 07/04 Q1017 NOSIG
12:00
V
7 °C 10 km+ 4.500 ft 040° 040° 6 kt METAR LFBC 021100Z AUTO 04006KT 010V080 9999 FEW014 OVC045 07/04 Q1018 NOSIG
11:30
V
7 °C 10 km+ 4.600 ft 060° 060° 6 kt METAR LFBC 021030Z AUTO 06006KT 030V090 9999 OVC046 07/04 Q1018 NOSIG
11:00
V
7 °C 10 km+ 4.500 ft 060° 060° 4 kt METAR LFBC 021000Z AUTO 06004KT 9999 OVC045 07/04 Q1018 NOSIG
10:30
V
6 °C 10 km+ 4.500 ft 050° 050° 5 kt METAR LFBC 020930Z AUTO 05005KT 9999 OVC045 06/04 Q1019 NOSIG
10:00
V
6 °C 10 km+ 4.700 ft Var Var 3 kt METAR LFBC 020900Z AUTO VRB03KT 9999 OVC047 06/04 Q1019 NOSIG
09:30
V
5 °C 9 km 4.700 ft 020° 020° 3 kt METAR LFBC 020830Z AUTO 02003KT 9000 OVC047 05/04 Q1019 NOSIG
09:00
V
5 °C 9 km 4.800 ft 010° 010° 4 kt METAR LFBC 020800Z AUTO 01004KT 9000 OVC048 05/04 Q1019 NOSIG
08:30
V
5 °C 9 km 4.800 ft 010° 010° 3 kt METAR LFBC 020730Z AUTO 01003KT 9000 OVC048 05/04 Q1019 NOSIG
08:00
V
5 °C 9 km 4.700 ft 020° 020° 3 kt METAR LFBC 020700Z AUTO 02003KT 9000 OVC047 05/04 Q1019 TEMPO 4000 BR
07:30
V
6 °C 9 km 4.800 ft 020° 020° 4 kt METAR LFBC 020630Z AUTO 02004KT 9000 OVC048 06/04 Q1019
07:00
V
6 °C 9 km 4.600 ft 020° 020° 5 kt METAR LFBC 020600Z AUTO 02005KT 9000 OVC046 06/04 Q1019
06:30
V
6 °C 9 km 4.500 ft 020° 020° 5 kt METAR LFBC 020530Z AUTO 02005KT 9000 OVC045 06/04 Q1019
06:00
V
6 °C 9 km 4.600 ft 020° 020° 6 kt METAR LFBC 020500Z AUTO 02006KT 9000 OVC046 06/05 Q1019
05:30
V
6 °C 9 km 4.600 ft 020° 020° 6 kt METAR LFBC 020430Z AUTO 02006KT 9000 OVC046 06/05 Q1019
05:00
V
6 °C 9 km 4.600 ft 010° 010° 6 kt METAR LFBC 020400Z AUTO 01006KT 9000 OVC046 06/05 Q1019
04:30
V
6 °C 9 km 4.600 ft 010° 010° 6 kt METAR LFBC 020330Z AUTO 01006KT 9000 OVC046 06/05 Q1019
04:00
V
6 °C 10 km+ 4.500 ft 010° 010° 4 kt METAR LFBC 020300Z AUTO 01004KT 9999 OVC045 06/05 Q1019
03:30
V
6 °C 10 km+ 4.500 ft 010° 010° 5 kt METAR LFBC 020230Z AUTO 01005KT 9999 OVC045 06/05 Q1020
03:00
V
6 °C 10 km+ 4.500 ft 010° 010° 5 kt METAR LFBC 020200Z AUTO 01005KT 9999 OVC045 06/05 Q1020
02:30
V
6 °C 10 km+ 4.500 ft 010° 010° 5 kt METAR LFBC 020130Z AUTO 01005KT 9999 OVC045 06/05 Q1020
02:00
V
6 °C 10 km+ 4.500 ft 010° 010° 5 kt METAR LFBC 020100Z AUTO 01005KT 9999 OVC045 06/04 Q1020
01:30
V
6 °C 10 km+ 4.600 ft 010° 010° 3 kt METAR LFBC 020030Z AUTO 01003KT 9999 OVC046 06/04 Q1020
01:00
V
6 °C 10 km+ 4.600 ft 010° 010° 4 kt METAR LFBC 020000Z AUTO 01004KT 9999 OVC046 06/04 Q1021
00:30
V
6 °C 10 km+ 4.500 ft 020° 020° 4 kt METAR LFBC 012330Z AUTO 02004KT 9999 OVC045 06/04 Q1021
00:00
V
6 °C 10 km+ 4.400 ft 010° 010° 4 kt METAR LFBC 012300Z AUTO 01004KT 9999 OVC044 06/05 Q1021

1. Dezember 2022

Uhrzeit Code Wetter Temp. Sichtweite Wolkendecke Wind METAR/SPECI
23:30
V
6 °C 10 km+ 4.500 ft 010° 010° 4 kt METAR LFBC 012230Z AUTO 01004KT 9999 OVC045 06/04 Q1021
23:00
V
6 °C 10 km+ 4.500 ft 020° 020° 5 kt METAR LFBC 012200Z AUTO 02005KT 9999 OVC045 06/04 Q1021
22:30
V
6 °C 10 km+ 4.600 ft 010° 010° 5 kt METAR LFBC 012130Z AUTO 01005KT 9999 OVC046 06/04 Q1021
22:00
V
7 °C 10 km+ 4.500 ft 020° 020° 5 kt METAR LFBC 012100Z AUTO 02005KT 9999 OVC045 07/05 Q1021 NOSIG
21:30
V
7 °C 10 km+ 4.500 ft 020° 020° 4 kt METAR LFBC 012030Z AUTO 02004KT 9999 OVC045 07/05 Q1021 BECMG 3000 BR
21:00
V
7 °C 10 km+ 4.400 ft 020° 020° 6 kt METAR LFBC 012000Z AUTO 02006KT 9999 OVC044 07/05 Q1021 BECMG 3000 BR
20:30
V
7 °C 10 km+ 4.400 ft 010° 010° 7 kt METAR LFBC 011930Z AUTO 01007KT 9999 OVC044 07/05 Q1021 BECMG 3000 BR
20:00
V
7 °C 10 km+ 4.400 ft 020° 020° 6 kt METAR LFBC 011900Z AUTO 02006KT 9999 OVC044 07/05 Q1021 NOSIG
19:30
V
7 °C 10 km+ 4.500 ft 020° 020° 6 kt METAR LFBC 011830Z AUTO 02006KT 9999 OVC045 07/05 Q1021 NOSIG
19:00
V
8 °C 10 km+ 4.400 ft 010° 010° 6 kt METAR LFBC 011800Z AUTO 01006KT 9999 OVC044 08/05 Q1021 NOSIG
18:30
V
8 °C 10 km+ 4.300 ft 010° 010° 7 kt METAR LFBC 011730Z AUTO 01007KT 9999 OVC043 08/05 Q1021 NOSIG
18:00
V
8 °C 10 km+ 4.200 ft 010° 010° 6 kt METAR LFBC 011700Z AUTO 01006KT 9999 FEW036 OVC042 08/05 Q1021 NOSIG
17:30
V
8 °C 10 km+ 4.100 ft 010° 010° 5 kt METAR LFBC 011630Z AUTO 01005KT 9999 BKN041 08/05 Q1020 NOSIG
17:00
V
9 °C 10 km+ - 020° 020° 7 kt METAR LFBC 011600Z AUTO 02007KT 9999 FEW039 09/05 Q1020 NOSIG
16:30
V
10 °C 10 km+ - 020° 020° 9 kt METAR LFBC 011530Z AUTO 02009KT 9999 FEW028 10/05 Q1020 NOSIG
16:00
V
11 °C 10 km+ - 040° 040° 5 kt METAR LFBC 011500Z AUTO 04005KT 9999 FEW029 11/05 Q1020 NOSIG
15:30
M
11 °C 10 km+ 2.900 ft 030° 030° 7 kt METAR LFBC 011430Z AUTO 03007KT 9999 BKN029 11/05 Q1020 NOSIG
15:00
M
11 °C 10 km+ 2.800 ft 040° 040° 8 kt METAR LFBC 011400Z AUTO 04008KT 340V070 9999 BKN028 11/04 Q1020 NOSIG
14:30
V
10 °C 10 km+ - 040° 040° 7 kt METAR LFBC 011330Z AUTO 04007KT 9999 FEW026 10/05 Q1021 NOSIG
14:00
M
11 °C 10 km+ 2.900 ft 030° 030° 7 kt METAR LFBC 011300Z AUTO 03007KT 360V070 9999 SCT024 BKN029 11/06 Q1021 NOSIG
13:30
V
10 °C 10 km+ - 040° 040° 8 kt METAR LFBC 011230Z AUTO 04008KT 010V070 9999 FEW022 10/05 Q1021 NOSIG
13:00
V
10 °C 10 km+ - 030° 030° 8 kt METAR LFBC 011200Z AUTO 03008KT 360V080 CAVOK 10/05 Q1021 NOSIG
12:30
V
9 °C 10 km+ - 030° 030° 7 kt METAR LFBC 011130Z AUTO 03007KT CAVOK 09/06 Q1022 NOSIG
12:00
V
8 °C 10 km+ - 020° 020° 6 kt METAR LFBC 011100Z AUTO 02006KT CAVOK 08/05 Q1022 NOSIG
11:30
V
7 °C 10 km+ - 030° 030° 6 kt METAR LFBC 011030Z AUTO 03006KT 9999 FEW009 07/05 Q1022 NOSIG
11:00
V
6 °C 10 km+ - 030° 030° 5 kt METAR LFBC 011000Z AUTO 03005KT 360V070 9999 FEW008 06/05 Q1022 TEMPO BKN004

Wir und Dritte verfolgen dein Internetverhalten auf unserer Website mit Cookies. Wenn du fortfährst, gehen wir davon aus, dass du mit unserer Cookie-Richtlinie einverstanden bist.